Time;durP1;ratioP1;P1;durP2;ratioP2;P2;SDS_P1;SDS_P2;PMS_P1;PMS_P2;Temp;Humidity;BMP_temperature;BMP_pressure;BME280_temperature;BME280_humidity;BME280_pressure;Samples;Min_cycle;Max_cycle;Signal;HPM_P1;HPM_P2
2023/05/20 00:01:36;;;;;;;0.40;0.40;;;;;;;;;;5114702;27;20182;-86
2023/05/20 00:04:02;;;;;;;0.43;0.43;;;;;;;;;;5106789;27;20673;-84
2023/05/20 00:06:28;;;;;;;0.43;0.43;;;;;;;;;;5091532;28;20181;-86
2023/05/20 00:08:54;;;;;;;0.40;0.40;;;;;;;;;;5090964;28;20219;-86
2023/05/20 00:11:20;;;;;;;0.40;0.40;;;;;;;;;;5090949;28;20197;-86
2023/05/20 00:13:46;;;;;;;0.40;0.40;;;;;;;;;;5090775;28;20568;-85
2023/05/20 00:16:13;;;;;;;0.50;0.50;;;;;;;;;;5093802;28;20629;-85
2023/05/20 00:18:38;;;;;;;0.30;0.30;;;;;;;;;;5094515;28;20347;-85
2023/05/20 00:21:05;;;;;;;0.40;0.40;;;;;;;;;;5094136;28;20201;-85
2023/05/20 00:23:32;;;;;;;0.47;0.47;;;;;;;;;;5093827;28;20541;-85
2023/05/20 00:25:58;;;;;;;0.43;0.43;;;;;;;;;;5094843;28;20184;-84
2023/05/20 00:28:24;;;;;;;0.40;0.40;;;;;;;;;;5095001;28;20269;-84
2023/05/20 00:30:50;;;;;;;0.50;0.50;;;;;;;;;;5093955;28;20182;-85
2023/05/20 00:33:16;;;;;;;0.40;0.40;;;;;;;;;;5077545;28;20761;-84
2023/05/20 00:35:42;;;;;;;0.40;0.40;;;;;;;;;;5072446;28;20174;-84
2023/05/20 00:38:08;;;;;;;0.40;0.40;;;;;;;;;;5082939;28;20231;-85
2023/05/20 00:40:34;;;;;;;0.47;0.47;;;;;;;;;;5092261;28;20221;-85
2023/05/20 00:43:00;;;;;;;0.40;0.40;;;;;;;;;;5093120;28;20281;-85
2023/05/20 00:45:26;;;;;;;0.40;0.40;;;;;;;;;;5094984;28;20538;-85
2023/05/20 00:47:52;;;;;;;0.40;0.40;;;;;;;;;;5095052;28;20612;-85
2023/05/20 00:50:18;;;;;;;0.40;0.40;;;;;;;;;;5093508;28;20170;-84
2023/05/20 00:52:46;;;;;;;0.60;0.60;;;;;;;;;;5072514;28;20575;-86
2023/05/20 00:55:13;;;;;;;0.40;0.40;;;;;;;;;;5072508;28;20186;-86
2023/05/20 00:57:39;;;;;;;0.40;0.40;;;;;;;;;;5072735;28;20205;-86
2023/05/20 01:00:05;;;;;;;0.50;0.50;;;;;;;;;;5072759;28;20570;-85
2023/05/20 01:02:31;;;;;;;0.50;0.50;;;;;;;;;;5072836;28;20202;-85
2023/05/20 01:04:57;;;;;;;0.50;0.50;;;;;;;;;;5074790;28;20197;-86
2023/05/20 01:07:24;;;;;;;0.43;0.43;;;;;;;;;;5074585;28;20198;-85
2023/05/20 01:09:51;;;;;;;0.50;0.50;;;;;;;;;;5074661;28;20182;-85
2023/05/20 01:12:20;;;;;;;0.40;0.40;;;;;;;;;;5074658;28;20585;-84
2023/05/20 01:14:50;;;;;;;0.50;0.50;;;;;;;;;;5075232;28;20316;-84
2023/05/20 01:17:19;;;;;;;0.50;0.50;;;;;;;;;;5075072;28;20201;-85
2023/05/20 01:19:47;;;;;;;0.40;0.40;;;;;;;;;;5080655;28;20202;-85
2023/05/20 01:22:13;;;;;;;0.53;0.53;;;;;;;;;;5079191;28;20533;-85
2023/05/20 01:24:43;;;;;;;0.50;0.50;;;;;;;;;;5081729;28;20598;-85
2023/05/20 01:27:09;;;;;;;0.50;0.50;;;;;;;;;;5080393;28;20224;-85
2023/05/20 01:29:36;;;;;;;0.40;0.40;;;;;;;;;;5097245;28;20181;-85
2023/05/20 01:32:05;;;;;;;0.57;0.57;;;;;;;;;;5095242;28;20550;-85
2023/05/20 01:34:32;;;;;;;0.50;0.50;;;;;;;;;;5093305;28;20182;-84
2023/05/20 01:36:58;;;;;;;0.67;0.67;;;;;;;;;;5091911;28;20353;-84
2023/05/20 01:39:25;;;;;;;0.50;0.50;;;;;;;;;;5093278;28;20216;-84
2023/05/20 01:41:51;;;;;;;0.50;0.50;;;;;;;;;;5092663;28;20177;-85
2023/05/20 01:44:17;;;;;;;0.40;0.40;;;;;;;;;;5091656;28;20214;-85
2023/05/20 01:46:48;;;;;;;0.40;0.40;;;;;;;;;;5079016;28;20181;-86
2023/05/20 01:49:14;;;;;;;0.50;0.50;;;;;;;;;;5079725;28;20208;-86
2023/05/20 01:51:40;;;;;;;0.60;0.60;;;;;;;;;;5089493;28;20178;-86
2023/05/20 01:54:06;;;;;;;0.50;0.50;;;;;;;;;;5094106;28;20177;-86
2023/05/20 01:56:32;;;;;;;0.60;0.60;;;;;;;;;;5097146;28;20185;-86
2023/05/20 01:58:58;;;;;;;0.50;0.50;;;;;;;;;;5096760;28;20198;-86
2023/05/20 02:01:24;;;;;;;0.40;0.40;;;;;;;;;;5095721;28;20235;-86
2023/05/20 02:03:50;;;;;;;0.53;0.53;;;;;;;;;;5091640;28;20205;-86
2023/05/20 02:06:16;;;;;;;0.40;0.40;;;;;;;;;;5077926;28;20170;-86
2023/05/20 02:08:42;;;;;;;0.40;0.40;;;;;;;;;;5074056;28;20167;-86
2023/05/20 02:11:08;;;;;;;0.50;0.50;;;;;;;;;;5074460;28;20271;-86
2023/05/20 02:13:34;;;;;;;0.50;0.50;;;;;;;;;;5074494;28;20198;-85
2023/05/20 02:16:00;;;;;;;0.50;0.50;;;;;;;;;;5075546;28;20197;-85
2023/05/20 02:18:26;;;;;;;0.50;0.50;;;;;;;;;;5075402;28;20681;-85
2023/05/20 02:20:52;;;;;;;0.50;0.50;;;;;;;;;;5076487;28;20190;-85
2023/05/20 02:23:18;;;;;;;0.57;0.57;;;;;;;;;;5074956;28;20194;-85
2023/05/20 02:25:44;;;;;;;0.50;0.50;;;;;;;;;;5072286;28;20194;-86
2023/05/20 02:28:10;;;;;;;0.40;0.40;;;;;;;;;;5089239;28;20170;-85
2023/05/20 02:30:40;;;;;;;0.50;0.50;;;;;;;;;;5098292;28;20173;-87
2023/05/20 02:33:07;;;;;;;0.40;0.40;;;;;;;;;;5091581;28;20186;-85
2023/05/20 02:35:33;;;;;;;0.47;0.47;;;;;;;;;;5083023;28;20171;-86
2023/05/20 02:37:59;;;;;;;0.50;0.50;;;;;;;;;;5082692;28;20237;-86
2023/05/20 02:40:25;;;;;;;0.50;0.50;;;;;;;;;;5078919;28;20202;-86
2023/05/20 02:42:51;;;;;;;0.70;0.70;;;;;;;;;;5070459;28;20307;-86
2023/05/20 02:45:17;;;;;;;0.40;0.40;;;;;;;;;;5070566;28;20189;-87
2023/05/20 02:47:43;;;;;;;0.50;0.50;;;;;;;;;;5070494;28;20606;-86
2023/05/20 02:50:09;;;;;;;0.50;0.50;;;;;;;;;;5070568;28;20198;-86
2023/05/20 02:52:35;;;;;;;0.50;0.50;;;;;;;;;;5070986;28;20194;-86
2023/05/20 02:55:02;;;;;;;0.57;0.57;;;;;;;;;;5071926;28;20181;-86
2023/05/20 02:57:28;;;;;;;0.40;0.40;;;;;;;;;;5071649;28;20213;-86
2023/05/20 02:59:55;;;;;;;0.50;0.50;;;;;;;;;;5071994;28;20210;-86
2023/05/20 03:02:22;;;;;;;0.50;0.50;;;;;;;;;;5071871;28;20199;-86
2023/05/20 03:04:49;;;;;;;0.50;0.50;;;;;;;;;;5078663;28;20189;-86
2023/05/20 03:07:18;;;;;;;0.50;0.50;;;;;;;;;;5096149;28;20182;-88
2023/05/20 03:09:44;;;;;;;0.40;0.40;;;;;;;;;;5095313;28;20253;-87
2023/05/20 03:12:10;;;;;;;0.40;0.40;;;;;;;;;;5071961;28;20191;-87
2023/05/20 03:14:36;;;;;;;0.50;0.50;;;;;;;;;;5071345;28;20181;-86
2023/05/20 03:17:02;;;;;;;0.40;0.40;;;;;;;;;;5071681;28;20711;-87
2023/05/20 03:19:28;;;;;;;0.60;0.60;;;;;;;;;;5071681;28;20310;-86
2023/05/20 03:21:54;;;;;;;0.57;0.57;;;;;;;;;;5071510;28;20204;-87
2023/05/20 03:24:22;;;;;;;0.53;0.53;;;;;;;;;;5070298;28;20256;-86
2023/05/20 03:26:48;;;;;;;0.60;0.60;;;;;;;;;;5083587;28;20193;-86
2023/05/20 03:29:14;;;;;;;0.53;0.53;;;;;;;;;;5090242;28;20684;-86
2023/05/20 03:31:40;;;;;;;0.50;0.50;;;;;;;;;;5089902;28;21017;-87
2023/05/20 03:34:07;;;;;;;0.50;0.50;;;;;;;;;;5090349;28;20191;-86
2023/05/20 03:36:33;;;;;;;0.60;0.60;;;;;;;;;;5091188;28;20170;-86
2023/05/20 03:38:59;;;;;;;0.50;0.50;;;;;;;;;;5090789;28;20258;-86
2023/05/20 03:41:25;;;;;;;0.60;0.60;;;;;;;;;;5090762;28;20204;-86
2023/05/20 03:43:51;;;;;;;0.60;0.60;;;;;;;;;;5090312;28;20193;-85
2023/05/20 03:46:17;;;;;;;0.50;0.50;;;;;;;;;;5091031;28;20193;-86
2023/05/20 03:48:43;;;;;;;0.50;0.50;;;;;;;;;;5112790;22;20237;-81
2023/05/20 03:51:09;;;;;;;0.50;0.50;;;;;;;;;;5077723;28;20174;-80
2023/05/20 03:53:34;;;;;;;0.50;0.50;;;;;;;;;;5063956;28;20575;-81
2023/05/20 03:56:00;;;;;;;0.60;0.60;;;;;;;;;;5066050;28;20179;-78
2023/05/20 03:58:28;;;;;;;0.50;0.50;;;;;;;;;;5081233;28;20221;-79
2023/05/20 04:00:54;;;;;;;0.60;0.60;;;;;;;;;;5080719;28;20227;-78
2023/05/20 04:03:21;;;;;;;0.50;0.50;;;;;;;;;;5077937;28;20195;-80
2023/05/20 04:05:47;;;;;;;0.50;0.50;;;;;;;;;;5079973;28;20183;-78
2023/05/20 04:08:13;;;;;;;0.50;0.50;;;;;;;;;;5073931;28;20212;-79
2023/05/20 04:10:42;;;;;;;0.50;0.50;;;;;;;;;;5073410;28;20175;-79
2023/05/20 04:13:08;;;;;;;0.60;0.60;;;;;;;;;;5061544;28;20245;-80
2023/05/20 04:15:35;;;;;;;0.50;0.50;;;;;;;;;;5059338;28;20260;-80
2023/05/20 04:18:01;;;;;;;0.50;0.50;;;;;;;;;;5059586;28;20206;-80
2023/05/20 04:20:27;;;;;;;0.50;0.50;;;;;;;;;;5058896;28;20265;-80
2023/05/20 04:22:54;;;;;;;0.60;0.60;;;;;;;;;;5059536;28;20284;-81
2023/05/20 04:25:20;;;;;;;0.57;0.57;;;;;;;;;;5061537;28;20670;-78
2023/05/20 04:27:46;;;;;;;0.50;0.50;;;;;;;;;;5065798;28;20236;-79
2023/05/20 04:30:13;;;;;;;0.50;0.50;;;;;;;;;;5068340;28;20179;-79
2023/05/20 04:32:39;;;;;;;0.50;0.50;;;;;;;;;;5065249;28;20484;-78
2023/05/20 04:35:10;;;;;;;0.40;0.40;;;;;;;;;;5065968;28;20191;-79
2023/05/20 04:37:36;;;;;;;0.50;0.50;;;;;;;;;;5064712;28;20176;-78
2023/05/20 04:40:05;;;;;;;0.40;0.40;;;;;;;;;;5065816;28;20215;-79
2023/05/20 04:42:31;;;;;;;0.50;0.50;;;;;;;;;;5060843;28;20191;-81
2023/05/20 04:45:00;;;;;;;0.50;0.50;;;;;;;;;;5058249;28;20179;-81
2023/05/20 04:47:27;;;;;;;0.40;0.40;;;;;;;;;;5057962;28;20172;-79
2023/05/20 04:49:56;;;;;;;0.40;0.40;;;;;;;;;;5057879;28;20210;-80
2023/05/20 04:52:22;;;;;;;0.40;0.40;;;;;;;;;;5057124;28;20590;-81
2023/05/20 04:54:49;;;;;;;0.50;0.50;;;;;;;;;;5057411;28;20183;-80
2023/05/20 04:57:16;;;;;;;0.50;0.50;;;;;;;;;;5058091;28;20232;-80
2023/05/20 04:59:44;;;;;;;0.40;0.40;;;;;;;;;;5056424;28;20221;-80
2023/05/20 05:02:10;;;;;;;0.40;0.40;;;;;;;;;;5057223;28;20206;-81
2023/05/20 05:04:36;;;;;;;0.30;0.30;;;;;;;;;;5056981;28;20184;-80
2023/05/20 05:07:02;;;;;;;0.50;0.50;;;;;;;;;;5057497;28;20182;-80
2023/05/20 05:09:28;;;;;;;0.50;0.50;;;;;;;;;;5057741;28;20182;-80
2023/05/20 05:11:54;;;;;;;0.57;0.57;;;;;;;;;;5056899;28;20262;-80
2023/05/20 05:14:21;;;;;;;0.40;0.40;;;;;;;;;;5056953;28;20195;-79
2023/05/20 05:16:47;;;;;;;0.40;0.40;;;;;;;;;;5057175;28;21824;-81
2023/05/20 05:19:13;;;;;;;0.40;0.40;;;;;;;;;;5057181;28;20219;-80
2023/05/20 05:21:38;;;;;;;0.40;0.40;;;;;;;;;;5056647;28;20229;-79
2023/05/20 05:24:05;;;;;;;0.40;0.40;;;;;;;;;;5056065;28;20199;-81
2023/05/20 05:26:30;;;;;;;0.40;0.40;;;;;;;;;;5057007;28;20171;-81
2023/05/20 05:28:56;;;;;;;0.40;0.40;;;;;;;;;;5056922;28;20659;-80
2023/05/20 05:31:22;;;;;;;0.50;0.50;;;;;;;;;;5056497;28;20183;-81
2023/05/20 05:33:48;;;;;;;0.50;0.50;;;;;;;;;;5056089;28;20277;-81
2023/05/20 05:36:15;;;;;;;0.40;0.40;;;;;;;;;;5056498;28;20539;-80
2023/05/20 05:38:41;;;;;;;0.30;0.30;;;;;;;;;;5056567;28;20207;-81
2023/05/20 05:41:07;;;;;;;0.50;0.50;;;;;;;;;;5056425;28;20178;-80
2023/05/20 05:43:33;;;;;;;0.40;0.40;;;;;;;;;;5056408;28;20227;-80
2023/05/20 05:45:59;;;;;;;0.40;0.40;;;;;;;;;;5056704;28;20183;-81
2023/05/20 05:48:25;;;;;;;0.47;0.47;;;;;;;;;;5056123;28;20218;-81
2023/05/20 05:50:51;;;;;;;0.40;0.40;;;;;;;;;;5056184;28;20643;-80
2023/05/20 05:53:17;;;;;;;0.40;0.40;;;;;;;;;;5055612;28;20217;-80
2023/05/20 05:55:43;;;;;;;0.50;0.50;;;;;;;;;;5051628;28;20181;-80
2023/05/20 05:58:09;;;;;;;0.43;0.43;;;;;;;;;;5035952;28;20199;-83
2023/05/20 06:00:35;;;;;;;0.60;0.60;;;;;;;;;;5036986;28;20306;-83
2023/05/20 06:03:01;;;;;;;0.50;0.50;;;;;;;;;;5036518;28;20203;-80
2023/05/20 06:05:26;;;;;;;0.40;0.40;;;;;;;;;;5036561;28;20258;-81
2023/05/20 06:07:52;;;;;;;0.40;0.40;;;;;;;;;;5036154;28;20180;-80
2023/05/20 06:10:18;;;;;;;0.40;0.40;;;;;;;;;;5036601;28;20187;-80
2023/05/20 06:12:44;;;;;;;0.30;0.30;;;;;;;;;;5035213;28;20728;-82
2023/05/20 06:15:10;;;;;;;0.40;0.40;;;;;;;;;;5036182;28;20183;-84
2023/05/20 06:17:36;;;;;;;0.40;0.40;;;;;;;;;;5041754;28;20167;-81
2023/05/20 06:20:03;;;;;;;0.40;0.40;;;;;;;;;;5043784;28;20217;-81
2023/05/20 06:22:29;;;;;;;0.30;0.30;;;;;;;;;;5051383;28;20338;-83
2023/05/20 06:24:59;;;;;;;0.40;0.40;;;;;;;;;;5052751;28;20262;-82
2023/05/20 06:27:25;;;;;;;0.40;0.40;;;;;;;;;;5058157;28;20171;-82
2023/05/20 06:29:51;;;;;;;0.40;0.40;;;;;;;;;;5057444;28;20175;-82
2023/05/20 06:32:16;;;;;;;0.50;0.50;;;;;;;;;;5056241;28;20638;-82
2023/05/20 06:34:43;;;;;;;0.40;0.40;;;;;;;;;;5057206;28;20270;-82
2023/05/20 06:37:10;;;;;;;0.50;0.50;;;;;;;;;;5057788;28;20179;-82
2023/05/20 06:39:36;;;;;;;0.30;0.30;;;;;;;;;;5056935;28;20252;-81
2023/05/20 06:42:02;;;;;;;0.40;0.40;;;;;;;;;;5057414;28;20171;-80
2023/05/20 06:44:28;;;;;;;0.40;0.40;;;;;;;;;;5056757;28;20579;-81
2023/05/20 06:46:54;;;;;;;0.50;0.50;;;;;;;;;;5056648;28;20176;-80
2023/05/20 06:49:21;;;;;;;0.50;0.50;;;;;;;;;;5055857;28;20249;-80
2023/05/20 06:51:47;;;;;;;0.40;0.40;;;;;;;;;;5057215;28;20172;-79
2023/05/20 06:54:13;;;;;;;0.30;0.30;;;;;;;;;;5056624;28;20203;-80
2023/05/20 06:56:39;;;;;;;0.40;0.40;;;;;;;;;;5056585;28;20262;-81
2023/05/20 06:59:06;;;;;;;0.40;0.40;;;;;;;;;;5047187;28;20207;-81
2023/05/20 07:01:32;;;;;;;0.40;0.40;;;;;;;;;;5052370;28;20172;-79
2023/05/20 07:03:58;;;;;;;0.40;0.40;;;;;;;;;;5054789;28;20213;-80
2023/05/20 07:06:24;;;;;;;0.40;0.40;;;;;;;;;;5045389;28;20179;-80
2023/05/20 07:08:50;;;;;;;0.50;0.50;;;;;;;;;;5046035;28;20203;-80
2023/05/20 07:11:28;;;;;;;0.33;0.33;;;;;;;;;;5045238;28;20217;-80
2023/05/20 07:13:54;;;;;;;0.40;0.40;;;;;;;;;;5052962;28;20202;-80
2023/05/20 07:16:20;;;;;;;0.40;0.40;;;;;;;;;;5071982;28;20176;-80
2023/05/20 07:18:46;;;;;;;0.30;0.30;;;;;;;;;;5065227;28;20249;-81
2023/05/20 07:21:12;;;;;;;0.30;0.30;;;;;;;;;;5063507;28;20172;-80
2023/05/20 07:23:38;;;;;;;0.40;0.40;;;;;;;;;;5072443;28;20206;-79
2023/05/20 07:26:04;;;;;;;0.33;0.33;;;;;;;;;;5063732;28;20268;-82
2023/05/20 07:28:30;;;;;;;0.40;0.40;;;;;;;;;;5056924;28;20678;-81
2023/05/20 07:30:57;;;;;;;0.40;0.40;;;;;;;;;;5058380;28;20183;-84
2023/05/20 07:33:23;;;;;;;0.30;0.30;;;;;;;;;;5055765;28;20693;-81
2023/05/20 07:35:49;;;;;;;0.30;0.30;;;;;;;;;;5056890;28;20175;-82
2023/05/20 07:38:15;;;;;;;0.33;0.33;;;;;;;;;;5059014;28;20663;-83
2023/05/20 07:40:41;;;;;;;0.50;0.50;;;;;;;;;;5059656;28;20194;-83
2023/05/20 07:43:08;;;;;;;0.30;0.30;;;;;;;;;;5063855;28;20213;-84
2023/05/20 07:45:35;;;;;;;0.50;0.50;;;;;;;;;;5077960;28;20178;-84
2023/05/20 07:48:01;;;;;;;0.30;0.30;;;;;;;;;;5062974;28;20577;-85
2023/05/20 07:50:27;;;;;;;0.40;0.40;;;;;;;;;;5057396;28;20197;-83
2023/05/20 07:52:53;;;;;;;0.40;0.40;;;;;;;;;;5065563;28;20220;-81
2023/05/20 07:55:19;;;;;;;0.30;0.30;;;;;;;;;;5086717;28;20183;-80
2023/05/20 07:57:45;;;;;;;0.40;0.40;;;;;;;;;;5094647;28;20158;-81
2023/05/20 08:00:12;;;;;;;0.40;0.40;;;;;;;;;;5078062;28;20256;-81
2023/05/20 08:02:38;;;;;;;0.43;0.43;;;;;;;;;;5075498;28;20187;-80
2023/05/20 08:05:05;;;;;;;0.40;0.40;;;;;;;;;;5081107;28;20174;-84
2023/05/20 08:07:31;;;;;;;0.40;0.40;;;;;;;;;;5069801;28;20172;-83
2023/05/20 08:09:57;;;;;;;0.30;0.30;;;;;;;;;;5062689;28;20179;-83
2023/05/20 08:12:23;;;;;;;0.40;0.40;;;;;;;;;;5073341;28;20543;-86
2023/05/20 08:14:49;;;;;;;0.40;0.40;;;;;;;;;;5062835;28;20170;-88
2023/05/20 08:17:15;;;;;;;0.30;0.30;;;;;;;;;;5074589;28;20178;-87
2023/05/20 08:19:41;;;;;;;0.33;0.33;;;;;;;;;;5061121;28;20670;-86
2023/05/20 08:22:07;;;;;;;0.40;0.40;;;;;;;;;;5075231;28;20591;-87
2023/05/20 08:24:33;;;;;;;0.50;0.50;;;;;;;;;;5058952;28;20195;-86
2023/05/20 08:27:00;;;;;;;0.40;0.40;;;;;;;;;;5066937;28;20205;-85
2023/05/20 08:29:26;;;;;;;0.50;0.50;;;;;;;;;;5067935;28;20183;-85
2023/05/20 08:31:52;;;;;;;0.40;0.40;;;;;;;;;;5075295;28;20213;-86
2023/05/20 08:34:18;;;;;;;0.37;0.37;;;;;;;;;;5074591;28;20194;-84
2023/05/20 08:36:44;;;;;;;0.50;0.50;;;;;;;;;;5067268;28;20170;-83
2023/05/20 08:39:10;;;;;;;0.40;0.40;;;;;;;;;;5070922;28;20241;-84
2023/05/20 08:41:37;;;;;;;0.50;0.50;;;;;;;;;;5071509;28;20176;-82
2023/05/20 08:44:04;;;;;;;0.40;0.40;;;;;;;;;;5055717;28;20204;-84
2023/05/20 08:46:31;;;;;;;0.40;0.40;;;;;;;;;;5071098;28;20194;-84
2023/05/20 08:48:58;;;;;;;0.40;0.40;;;;;;;;;;5072853;28;20658;-83
2023/05/20 08:51:26;;;;;;;0.40;0.40;;;;;;;;;;5071655;28;20178;-83
2023/05/20 08:53:52;;;;;;;0.30;0.30;;;;;;;;;;5064483;28;20215;-83
2023/05/20 08:56:18;;;;;;;0.27;0.27;;;;;;;;;;5076728;28;20185;-84
2023/05/20 08:58:45;;;;;;;0.33;0.33;;;;;;;;;;5072343;28;20199;-88
2023/05/20 09:01:11;;;;;;;0.30;0.30;;;;;;;;;;5058184;28;20270;-83
2023/05/20 09:03:37;;;;;;;0.30;0.30;;;;;;;;;;5056858;28;20225;-83
2023/05/20 09:06:07;;;;;;;0.30;0.30;;;;;;;;;;5073302;28;20178;-84
2023/05/20 09:08:33;;;;;;;0.30;0.30;;;;;;;;;;5053068;28;20230;-82
2023/05/20 09:10:59;;;;;;;0.30;0.30;;;;;;;;;;5053830;28;20650;-83
2023/05/20 09:13:26;;;;;;;0.30;0.30;;;;;;;;;;5053314;28;20732;-82
2023/05/20 09:15:52;;;;;;;0.40;0.40;;;;;;;;;;5046496;28;20266;-84
2023/05/20 09:18:18;;;;;;;0.30;0.30;;;;;;;;;;5064275;28;20178;-82
2023/05/20 09:20:46;;;;;;;0.30;0.30;;;;;;;;;;5077882;28;20183;-83
2023/05/20 09:23:12;;;;;;;0.30;0.30;;;;;;;;;;5067776;28;20285;-84
2023/05/20 09:25:38;;;;;;;0.40;0.40;;;;;;;;;;5063833;28;20205;-83
2023/05/20 09:28:05;;;;;;;0.30;0.30;;;;;;;;;;5075024;28;20690;-84
2023/05/20 09:30:31;;;;;;;0.30;0.30;;;;;;;;;;5077582;28;20186;-85
2023/05/20 09:32:58;;;;;;;0.40;0.40;;;;;;;;;;5073031;28;20199;-85
2023/05/20 09:35:25;;;;;;;0.37;0.37;;;;;;;;;;5068957;28;20179;-85
2023/05/20 09:37:55;;;;;;;0.33;0.33;;;;;;;;;;5072145;28;20319;-85
2023/05/20 09:40:24;;;;;;;0.33;0.33;;;;;;;;;;5063020;28;20207;-85
2023/05/20 09:42:55;;;;;;;0.30;0.30;;;;;;;;;;5060574;28;20191;-85
2023/05/20 09:45:21;;;;;;;0.30;0.30;;;;;;;;;;5062522;28;20182;-84
2023/05/20 09:47:49;;;;;;;0.50;0.50;;;;;;;;;;5062921;28;20250;-85
2023/05/20 09:50:15;;;;;;;0.50;0.50;;;;;;;;;;5063515;28;20529;-85
2023/05/20 09:52:42;;;;;;;0.33;0.33;;;;;;;;;;5062336;28;20701;-85
2023/05/20 09:55:11;;;;;;;0.40;0.40;;;;;;;;;;5063204;28;20254;-85
2023/05/20 09:57:37;;;;;;;0.30;0.30;;;;;;;;;;5063396;28;20259;-84
2023/05/20 10:00:04;;;;;;;0.30;0.30;;;;;;;;;;5062382;28;20218;-86
2023/05/20 10:02:31;;;;;;;0.47;0.47;;;;;;;;;;5059608;28;20195;-85
2023/05/20 10:04:57;;;;;;;0.33;0.33;;;;;;;;;;5061051;28;20183;-84
2023/05/20 10:07:42;;;;;;;0.40;0.40;;;;;;;;;;5059127;28;20269;-85
2023/05/20 10:10:25;;;;;;;0.30;0.30;;;;;;;;;;5058841;28;20194;-84
2023/05/20 10:13:07;;;;;;;0.50;0.50;;;;;;;;;;5059602;28;20199;-84
2023/05/20 10:15:49;;;;;;;0.30;0.30;;;;;;;;;;5059757;28;20179;-84
2023/05/20 10:18:21;;;;;;;0.40;0.40;;;;;;;;;;5059434;28;20171;-84
2023/05/20 10:20:47;;;;;;;0.40;0.40;;;;;;;;;;5060747;28;20173;-85
2023/05/20 10:23:29;;;;;;;0.50;0.50;;;;;;;;;;5058976;28;20198;-84
2023/05/20 10:25:57;;;;;;;0.30;0.30;;;;;;;;;;5057393;28;20255;-85
2023/05/20 10:28:30;;;;;;;0.30;0.30;;;;;;;;;;5056896;28;20198;-85
2023/05/20 10:30:57;;;;;;;0.40;0.40;;;;;;;;;;5056157;28;20205;-84
2023/05/20 10:33:26;;;;;;;0.40;0.40;;;;;;;;;;5072860;28;20211;-81
2023/05/20 10:35:53;;;;;;;0.30;0.30;;;;;;;;;;5078272;28;20159;-81
2023/05/20 10:38:20;;;;;;;0.40;0.40;;;;;;;;;;5077711;28;20159;-83
2023/05/20 10:40:46;;;;;;;0.40;0.40;;;;;;;;;;5077643;28;20159;-83
2023/05/20 10:43:17;;;;;;;0.40;0.40;;;;;;;;;;5061112;28;20332;-84
2023/05/20 10:45:50;;;;;;;0.50;0.50;;;;;;;;;;5057472;28;20191;-84
2023/05/20 10:48:20;;;;;;;0.50;0.50;;;;;;;;;;5056212;28;20202;-83
2023/05/20 10:50:47;;;;;;;0.40;0.40;;;;;;;;;;5058462;28;20244;-84
2023/05/20 10:53:14;;;;;;;0.30;0.30;;;;;;;;;;5057028;28;20195;-81
2023/05/20 10:55:41;;;;;;;0.40;0.40;;;;;;;;;;5055402;28;20243;-84
2023/05/20 10:58:07;;;;;;;0.30;0.30;;;;;;;;;;5056904;28;20185;-84
2023/05/20 11:00:36;;;;;;;0.40;0.40;;;;;;;;;;5057618;28;20217;-83
2023/05/20 11:03:03;;;;;;;0.40;0.40;;;;;;;;;;5057810;28;20199;-83
2023/05/20 11:05:30;;;;;;;0.40;0.40;;;;;;;;;;5057271;28;20175;-83
2023/05/20 11:08:03;;;;;;;0.30;0.30;;;;;;;;;;5058066;28;20182;-81
2023/05/20 11:10:30;;;;;;;0.40;0.40;;;;;;;;;;5059458;28;20266;-83
2023/05/20 11:12:56;;;;;;;0.30;0.30;;;;;;;;;;5069206;28;20199;-79
2023/05/20 11:15:23;;;;;;;0.30;0.30;;;;;;;;;;5076211;28;20187;-80
2023/05/20 11:17:57;;;;;;;0.43;0.43;;;;;;;;;;5076439;28;20182;-79
2023/05/20 11:20:24;;;;;;;0.40;0.40;;;;;;;;;;5076527;28;20237;-81
2023/05/20 11:22:50;;;;;;;0.30;0.30;;;;;;;;;;5075468;28;20194;-80
2023/05/20 11:25:17;;;;;;;0.43;0.43;;;;;;;;;;5076010;28;20190;-82
2023/05/20 11:27:43;;;;;;;0.40;0.40;;;;;;;;;;5068470;28;20179;-81
2023/05/20 11:30:10;;;;;;;0.50;0.50;;;;;;;;;;5077026;28;20179;-79
2023/05/20 11:32:36;;;;;;;0.40;0.40;;;;;;;;;;5076491;28;20179;-80
2023/05/20 11:35:03;;;;;;;0.30;0.30;;;;;;;;;;5077024;28;20270;-80
2023/05/20 11:37:30;;;;;;;0.50;0.50;;;;;;;;;;5076832;28;20231;-79
2023/05/20 11:40:06;;;;;;;0.50;0.50;;;;;;;;;;5077008;28;20207;-81
2023/05/20 11:42:32;;;;;;;0.47;0.47;;;;;;;;;;5076722;28;20179;-80
2023/05/20 11:45:02;;;;;;;0.50;0.50;;;;;;;;;;5077016;28;20159;-79
2023/05/20 11:47:28;;;;;;;0.40;0.40;;;;;;;;;;5076833;28;20175;-80
2023/05/20 11:49:55;;;;;;;0.33;0.33;;;;;;;;;;5076967;28;20250;-79
2023/05/20 11:52:21;;;;;;;0.30;0.30;;;;;;;;;;5076331;28;20188;-81
2023/05/20 11:54:53;;;;;;;0.43;0.43;;;;;;;;;;5076862;28;20174;-80
2023/05/20 11:57:19;;;;;;;0.30;0.30;;;;;;;;;;5074792;28;20179;-83
2023/05/20 11:59:46;;;;;;;0.30;0.30;;;;;;;;;;5058100;28;20215;-83
2023/05/20 12:02:12;;;;;;;0.40;0.40;;;;;;;;;;5054998;28;20183;-85
2023/05/20 12:04:38;;;;;;;0.40;0.40;;;;;;;;;;5053405;28;20660;-84
2023/05/20 12:07:08;;;;;;;0.40;0.40;;;;;;;;;;5054895;28;20184;-85
2023/05/20 12:09:34;;;;;;;0.37;0.37;;;;;;;;;;5055743;28;20189;-86
2023/05/20 12:12:00;;;;;;;0.30;0.30;;;;;;;;;;5056283;28;20171;-86
2023/05/20 12:14:26;;;;;;;0.30;0.30;;;;;;;;;;5057884;28;20205;-85
2023/05/20 12:16:52;;;;;;;0.40;0.40;;;;;;;;;;5056358;28;20167;-86
2023/05/20 12:19:18;;;;;;;0.33;0.33;;;;;;;;;;5056424;28;20574;-86
2023/05/20 12:21:46;;;;;;;0.33;0.33;;;;;;;;;;5055767;28;20238;-87
2023/05/20 12:24:12;;;;;;;0.40;0.40;;;;;;;;;;5055574;28;20701;-86
2023/05/20 12:26:39;;;;;;;0.40;0.40;;;;;;;;;;5057472;28;20246;-82
2023/05/20 12:29:05;;;;;;;0.30;0.30;;;;;;;;;;5057403;28;20179;-84
2023/05/20 12:31:31;;;;;;;0.40;0.40;;;;;;;;;;5058069;28;20194;-83
2023/05/20 12:33:57;;;;;;;0.40;0.40;;;;;;;;;;5057437;28;20203;-83
2023/05/20 12:36:23;;;;;;;0.40;0.40;;;;;;;;;;5056717;28;20221;-85
2023/05/20 12:38:49;;;;;;;0.30;0.30;;;;;;;;;;5056606;28;20642;-84
2023/05/20 12:41:15;;;;;;;0.30;0.30;;;;;;;;;;5057278;28;20175;-85
2023/05/20 12:43:41;;;;;;;0.40;0.40;;;;;;;;;;5056633;28;20206;-83
2023/05/20 12:46:07;;;;;;;0.30;0.30;;;;;;;;;;5055785;28;20199;-84
2023/05/20 12:48:33;;;;;;;0.50;0.50;;;;;;;;;;5055521;28;20297;-85
2023/05/20 12:51:00;;;;;;;0.40;0.40;;;;;;;;;;5056019;28;20187;-85
2023/05/20 12:53:26;;;;;;;0.30;0.30;;;;;;;;;;5054267;28;20829;-85
2023/05/20 12:55:52;;;;;;;0.40;0.40;;;;;;;;;;5055162;28;20217;-86
2023/05/20 12:58:18;;;;;;;0.40;0.40;;;;;;;;;;5055346;28;20282;-85
2023/05/20 13:00:44;;;;;;;0.50;0.50;;;;;;;;;;5055123;28;20222;-85
2023/05/20 13:03:10;;;;;;;0.30;0.30;;;;;;;;;;5055641;28;20688;-84
2023/05/20 13:05:36;;;;;;;0.40;0.40;;;;;;;;;;5057450;28;20203;-85
2023/05/20 13:08:02;;;;;;;0.40;0.40;;;;;;;;;;5057306;28;20179;-83
2023/05/20 13:10:28;;;;;;;0.40;0.40;;;;;;;;;;5057586;28;20179;-84
2023/05/20 13:12:54;;;;;;;0.40;0.40;;;;;;;;;;5057737;28;20295;-84
2023/05/20 13:15:20;;;;;;;0.40;0.40;;;;;;;;;;5058005;28;20243;-84
2023/05/20 13:17:46;;;;;;;0.40;0.40;;;;;;;;;;5058410;28;20181;-83
2023/05/20 13:20:12;;;;;;;0.30;0.30;;;;;;;;;;5051566;28;20219;-84
2023/05/20 13:22:38;;;;;;;0.40;0.40;;;;;;;;;;5053278;28;20195;-84
2023/05/20 13:25:05;;;;;;;0.47;0.47;;;;;;;;;;5058779;28;20501;-85
2023/05/20 13:27:31;;;;;;;0.40;0.40;;;;;;;;;;5059198;28;20212;-85
2023/05/20 13:29:57;;;;;;;0.37;0.37;;;;;;;;;;5058098;28;20175;-85
2023/05/20 13:32:23;;;;;;;0.40;0.40;;;;;;;;;;5051639;28;20286;-84
2023/05/20 13:34:49;;;;;;;0.40;0.40;;;;;;;;;;5048922;28;20171;-86
2023/05/20 13:37:15;;;;;;;0.43;0.43;;;;;;;;;;5046816;28;20190;-86
2023/05/20 13:39:42;;;;;;;0.40;0.40;;;;;;;;;;5050182;28;20207;-85
2023/05/20 13:42:07;;;;;;;0.47;0.47;;;;;;;;;;5055422;28;20171;-85
2023/05/20 13:44:33;;;;;;;0.50;0.50;;;;;;;;;;5059419;28;20194;-82
2023/05/20 13:46:59;;;;;;;0.40;0.40;;;;;;;;;;5071698;28;20172;-83
2023/05/20 13:49:25;;;;;;;0.40;0.40;;;;;;;;;;5076771;28;20186;-83
2023/05/20 13:51:51;;;;;;;0.40;0.40;;;;;;;;;;5078580;28;20183;-85
2023/05/20 13:54:17;;;;;;;0.40;0.40;;;;;;;;;;5077235;28;20187;-86
2023/05/20 13:56:43;;;;;;;0.40;0.40;;;;;;;;;;5069084;28;20650;-88
2023/05/20 13:59:09;;;;;;;0.33;0.33;;;;;;;;;;5055094;28;20352;-87
2023/05/20 14:01:35;;;;;;;0.40;0.40;;;;;;;;;;5054483;28;20274;-87
2023/05/20 14:04:01;;;;;;;0.30;0.30;;;;;;;;;;5051638;28;20690;-85
2023/05/20 14:06:28;;;;;;;0.50;0.50;;;;;;;;;;5056123;28;20229;-85
2023/05/20 14:08:54;;;;;;;0.43;0.43;;;;;;;;;;5053023;28;20194;-86
2023/05/20 14:11:21;;;;;;;0.40;0.40;;;;;;;;;;5063573;28;20183;-84
2023/05/20 14:13:46;;;;;;;0.43;0.43;;;;;;;;;;5056515;28;20241;-85
2023/05/20 14:16:12;;;;;;;0.50;0.50;;;;;;;;;;5052819;28;20171;-87
2023/05/20 14:18:40;;;;;;;0.43;0.43;;;;;;;;;;5052971;28;20176;-85
2023/05/20 14:21:06;;;;;;;0.40;0.40;;;;;;;;;;5055408;28;20213;-86
2023/05/20 14:23:32;;;;;;;0.30;0.30;;;;;;;;;;5069860;28;20190;-87
2023/05/20 14:25:58;;;;;;;0.50;0.50;;;;;;;;;;5060909;28;20204;-86
2023/05/20 14:28:24;;;;;;;0.37;0.37;;;;;;;;;;5062752;28;20193;-85
2023/05/20 14:30:50;;;;;;;0.40;0.40;;;;;;;;;;5067689;28;20179;-84
2023/05/20 14:33:15;;;;;;;0.40;0.40;;;;;;;;;;5051415;28;20784;-84
2023/05/20 14:35:41;;;;;;;0.50;0.50;;;;;;;;;;5054584;28;20175;-86
2023/05/20 14:38:07;;;;;;;0.50;0.50;;;;;;;;;;5058390;28;20182;-85
2023/05/20 14:40:33;;;;;;;0.40;0.40;;;;;;;;;;5063573;28;20217;-87